sensor_id;sensor_type;location;lat;lon;timestamp;pressure;altitude;pressure_sealevel;temperature;humidity
60345;BME280;46188;52.324;8.032;2023-09-30T00:01:38;101295.28;;;13.15;100.00
60345;BME280;46188;52.324;8.032;2023-09-30T00:04:04;101302.34;;;13.17;100.00
60345;BME280;46188;52.324;8.032;2023-09-30T00:06:30;101297.09;;;13.20;100.00
60345;BME280;46188;52.324;8.032;2023-09-30T00:08:55;101303.13;;;13.10;100.00
60345;BME280;46188;52.324;8.032;2023-09-30T00:11:21;101307.53;;;13.08;100.00
60345;BME280;46188;52.324;8.032;2023-09-30T00:13:46;101305.75;;;13.07;100.00
60345;BME280;46188;52.324;8.032;2023-09-30T00:16:14;101306.59;;;13.04;100.00
60345;BME280;46188;52.324;8.032;2023-09-30T00:18:39;101302.19;;;13.05;100.00
60345;BME280;46188;52.324;8.032;2023-09-30T00:21:05;101304.81;;;13.03;100.00
60345;BME280;46188;52.324;8.032;2023-09-30T00:23:31;101305.66;;;13.01;100.00
60345;BME280;46188;52.324;8.032;2023-09-30T00:25:56;101303.97;;;13.06;100.00
60345;BME280;46188;52.324;8.032;2023-09-30T00:28:21;101313.66;;;13.05;100.00
60345;BME280;46188;52.324;8.032;2023-09-30T00:30:47;101318.06;;;13.05;100.00
60345;BME280;46188;52.324;8.032;2023-09-30T00:33:13;101317.19;;;13.04;100.00
60345;BME280;46188;52.324;8.032;2023-09-30T00:35:38;101314.59;;;13.10;100.00
60345;BME280;46188;52.324;8.032;2023-09-30T00:38:04;101315.56;;;13.14;100.00
60345;BME280;46188;52.324;8.032;2023-09-30T00:40:29;101320.88;;;13.14;100.00
60345;BME280;46188;52.324;8.032;2023-09-30T00:42:54;101328.72;;;13.09;100.00
60345;BME280;46188;52.324;8.032;2023-09-30T00:45:21;101329.56;;;13.07;100.00
60345;BME280;46188;52.324;8.032;2023-09-30T00:47:46;101332.22;;;13.07;100.00
60345;BME280;46188;52.324;8.032;2023-09-30T00:50:12;101324.28;;;13.07;100.00
60345;BME280;46188;52.324;8.032;2023-09-30T00:52:38;101326.81;;;12.99;100.00
60345;BME280;46188;52.324;8.032;2023-09-30T00:55:04;101329.44;;;12.98;100.00
60345;BME280;46188;52.324;8.032;2023-09-30T00:57:31;101322.41;;;13.00;100.00
60345;BME280;46188;52.324;8.032;2023-09-30T00:59:57;101333.03;;;13.01;100.00
60345;BME280;46188;52.324;8.032;2023-09-30T01:02:23;101318.88;;;13.01;100.00
60345;BME280;46188;52.324;8.032;2023-09-30T01:04:48;101315.41;;;13.03;100.00
60345;BME280;46188;52.324;8.032;2023-09-30T01:07:14;101313.59;;;12.99;100.00
60345;BME280;46188;52.324;8.032;2023-09-30T01:09:40;101317.13;;;13.01;100.00
60345;BME280;46188;52.324;8.032;2023-09-30T01:12:05;101305.66;;;13.01;100.00
60345;BME280;46188;52.324;8.032;2023-09-30T01:14:32;101306.50;;;12.98;100.00
60345;BME280;46188;52.324;8.032;2023-09-30T01:17:00;101309.16;;;12.98;100.00
60345;BME280;46188;52.324;8.032;2023-09-30T01:19:25;101309.03;;;12.90;100.00
60345;BME280;46188;52.324;8.032;2023-09-30T01:21:55;101309.03;;;12.90;100.00
60345;BME280;46188;52.324;8.032;2023-09-30T01:24:26;101310.94;;;12.99;100.00
60345;BME280;46188;52.324;8.032;2023-09-30T01:26:51;101319.75;;;13.00;100.00
60345;BME280;46188;52.324;8.032;2023-09-30T01:29:18;101317.06;;;12.97;100.00
60345;BME280;46188;52.324;8.032;2023-09-30T01:31:43;101313.50;;;12.95;100.00
60345;BME280;46188;52.324;8.032;2023-09-30T01:34:08;101322.38;;;12.97;100.00
60345;BME280;46188;52.324;8.032;2023-09-30T01:36:36;101323.25;;;12.97;100.00
60345;BME280;46188;52.324;8.032;2023-09-30T01:39:01;101310.94;;;13.01;100.00
60345;BME280;46188;52.324;8.032;2023-09-30T01:41:27;101319.88;;;13.06;100.00
60345;BME280;46188;52.324;8.032;2023-09-30T01:43:53;101323.50;;;13.13;100.00
60345;BME280;46188;52.324;8.032;2023-09-30T01:46:18;101319.09;;;13.15;100.00
60345;BME280;46188;52.324;8.032;2023-09-30T01:48:44;101331.47;;;13.16;100.00
60345;BME280;46188;52.324;8.032;2023-09-30T01:51:09;101327.91;;;13.15;100.00
60345;BME280;46188;52.324;8.032;2023-09-30T01:53:34;101308.47;;;13.11;100.00
60345;BME280;46188;52.324;8.032;2023-09-30T01:56:00;101333.16;;;13.12;100.00
60345;BME280;46188;52.324;8.032;2023-09-30T01:58:25;101332.34;;;13.15;100.00
60345;BME280;46188;52.324;8.032;2023-09-30T02:00:52;101331.41;;;13.11;100.00
60345;BME280;46188;52.324;8.032;2023-09-30T02:03:17;101330.59;;;13.17;100.00
60345;BME280;46188;52.324;8.032;2023-09-30T02:05:43;101324.44;;;13.18;100.00
60345;BME280;46188;52.324;8.032;2023-09-30T02:08:08;101326.16;;;13.17;100.00
60345;BME280;46188;52.324;8.032;2023-09-30T02:10:34;101331.34;;;13.08;100.00
60345;BME280;46188;52.324;8.032;2023-09-30T02:12:59;101340.19;;;13.08;100.00
60345;BME280;46188;52.324;8.032;2023-09-30T02:15:25;101341.06;;;13.09;100.00
60345;BME280;46188;52.324;8.032;2023-09-30T02:17:51;101342.00;;;13.13;100.00
60345;BME280;46188;52.324;8.032;2023-09-30T02:20:17;101332.31;;;13.13;100.00
60345;BME280;46188;52.324;8.032;2023-09-30T02:22:45;101341.13;;;13.14;100.00
60345;BME280;46188;52.324;8.032;2023-09-30T02:25:11;101343.69;;;13.09;100.00
60345;BME280;46188;52.324;8.032;2023-09-30T02:27:38;101327.00;;;13.11;100.00
60345;BME280;46188;52.324;8.032;2023-09-30T02:30:04;101332.31;;;13.13;100.00
60345;BME280;46188;52.324;8.032;2023-09-30T02:32:30;101335.84;;;13.15;100.00
60345;BME280;46188;52.324;8.032;2023-09-30T02:34:57;101343.81;;;13.15;100.00
60345;BME280;46188;52.324;8.032;2023-09-30T02:37:23;101348.16;;;13.11;100.00
60345;BME280;46188;52.324;8.032;2023-09-30T02:39:48;101351.66;;;13.10;100.00
60345;BME280;46188;52.324;8.032;2023-09-30T02:42:14;101349.94;;;13.11;100.00
60345;BME280;46188;52.324;8.032;2023-09-30T02:44:40;101349.03;;;13.12;100.00
60345;BME280;46188;52.324;8.032;2023-09-30T02:47:05;101358.72;;;13.10;100.00
60345;BME280;46188;52.324;8.032;2023-09-30T02:49:32;101361.28;;;13.04;100.00
60345;BME280;46188;52.324;8.032;2023-09-30T02:51:58;101362.13;;;13.01;100.00
60345;BME280;46188;52.324;8.032;2023-09-30T02:54:23;101361.22;;;12.99;100.00
60345;BME280;46188;52.324;8.032;2023-09-30T02:56:48;101362.03;;;12.95;100.00
60345;BME280;46188;52.324;8.032;2023-09-30T02:59:14;101357.63;;;12.96;100.00
60345;BME280;46188;52.324;8.032;2023-09-30T03:01:40;101347.91;;;12.95;100.00
60345;BME280;46188;52.324;8.032;2023-09-30T03:04:06;101350.59;;;12.96;100.00
60345;BME280;46188;52.324;8.032;2023-09-30T03:06:33;101345.34;;;12.99;100.00
60345;BME280;46188;52.324;8.032;2023-09-30T03:09:02;101342.56;;;12.91;100.00
60345;BME280;46188;52.324;8.032;2023-09-30T03:11:29;101344.25;;;12.86;100.00
60345;BME280;46188;52.324;8.032;2023-09-30T03:13:55;101334.53;;;12.85;100.00
60345;BME280;46188;52.324;8.032;2023-09-30T03:16:20;101340.72;;;12.86;100.00
60345;BME280;46188;52.324;8.032;2023-09-30T03:18:45;101339.81;;;12.85;100.00
60345;BME280;46188;52.324;8.032;2023-09-30T03:21:14;101340.72;;;12.84;100.00
60345;BME280;46188;52.324;8.032;2023-09-30T03:23:40;101344.19;;;12.82;100.00
60345;BME280;46188;52.324;8.032;2023-09-30T03:26:05;101347.72;;;12.82;100.00
60345;BME280;46188;52.324;8.032;2023-09-30T03:28:37;101342.38;;;12.79;100.00
60345;BME280;46188;52.324;8.032;2023-09-30T03:31:04;101348.63;;;12.83;100.00
60345;BME280;46188;52.324;8.032;2023-09-30T03:33:32;101346.91;;;12.86;100.00
60345;BME280;46188;52.324;8.032;2023-09-30T03:35:57;101352.25;;;12.89;100.00
60345;BME280;46188;52.324;8.032;2023-09-30T03:38:23;101352.22;;;12.88;100.00
60345;BME280;46188;52.324;8.032;2023-09-30T03:40:49;101362.84;;;12.89;100.00
60345;BME280;46188;52.324;8.032;2023-09-30T03:43:15;101361.88;;;12.86;100.00
60345;BME280;46188;52.324;8.032;2023-09-30T03:45:41;101354.69;;;12.77;100.00
60345;BME280;46188;52.324;8.032;2023-09-30T03:48:06;101346.75;;;12.77;100.00
60345;BME280;46188;52.324;8.032;2023-09-30T03:50:32;101347.59;;;12.73;100.00
60345;BME280;46188;52.324;8.032;2023-09-30T03:53:05;101349.34;;;12.74;100.00
60345;BME280;46188;52.324;8.032;2023-09-30T03:55:32;101349.34;;;12.74;100.00
60345;BME280;46188;52.324;8.032;2023-09-30T03:57:58;101338.88;;;12.80;100.00
60345;BME280;46188;52.324;8.032;2023-09-30T04:00:23;101333.56;;;12.79;100.00
60345;BME280;46188;52.324;8.032;2023-09-30T04:02:49;101338.81;;;12.77;100.00
60345;BME280;46188;52.324;8.032;2023-09-30T04:05:17;101348.41;;;12.70;100.00
60345;BME280;46188;52.324;8.032;2023-09-30T04:07:42;101350.94;;;12.64;100.00
60345;BME280;46188;52.324;8.032;2023-09-30T04:10:09;101343.00;;;12.64;100.00
60345;BME280;46188;52.324;8.032;2023-09-30T04:12:35;101347.50;;;12.68;100.00
60345;BME280;46188;52.324;8.032;2023-09-30T04:15:00;101339.59;;;12.70;100.00
60345;BME280;46188;52.324;8.032;2023-09-30T04:17:26;101336.16;;;12.76;100.00
60345;BME280;46188;52.324;8.032;2023-09-30T04:19:53;101334.28;;;12.68;100.00
60345;BME280;46188;52.324;8.032;2023-09-30T04:22:18;101328.94;;;12.65;100.00
60345;BME280;46188;52.324;8.032;2023-09-30T04:24:44;101327.16;;;12.66;100.00
60345;BME280;46188;52.324;8.032;2023-09-30T04:27:10;101328.97;;;12.67;100.00
60345;BME280;46188;52.324;8.032;2023-09-30T04:29:36;101324.50;;;12.64;100.00
60345;BME280;46188;52.324;8.032;2023-09-30T04:32:01;101333.28;;;12.62;100.00
60345;BME280;46188;52.324;8.032;2023-09-30T04:34:26;101341.16;;;12.59;100.00
60345;BME280;46188;52.324;8.032;2023-09-30T04:36:53;101346.50;;;12.62;100.00
60345;BME280;46188;52.324;8.032;2023-09-30T04:39:18;101340.38;;;12.64;100.00
60345;BME280;46188;52.324;8.032;2023-09-30T04:41:43;101339.53;;;12.67;100.00
60345;BME280;46188;52.324;8.032;2023-09-30T04:44:09;101339.53;;;12.67;100.00
60345;BME280;46188;52.324;8.032;2023-09-30T04:46:35;101347.41;;;12.62;100.00
60345;BME280;46188;52.324;8.032;2023-09-30T04:49:01;101349.97;;;12.59;100.00
60345;BME280;46188;52.324;8.032;2023-09-30T04:51:29;101362.34;;;12.60;100.00
60345;BME280;46188;52.324;8.032;2023-09-30T04:53:55;101360.56;;;12.59;100.00
60345;BME280;46188;52.324;8.032;2023-09-30T04:56:22;101357.88;;;12.58;100.00
60345;BME280;46188;52.324;8.032;2023-09-30T04:58:48;101354.38;;;12.59;100.00
60345;BME280;46188;52.324;8.032;2023-09-30T05:01:13;101357.00;;;12.57;100.00
60345;BME280;46188;52.324;8.032;2023-09-30T05:03:39;101357.03;;;12.59;100.00
60345;BME280;46188;52.324;8.032;2023-09-30T05:06:04;101352.66;;;12.61;100.00
60345;BME280;46188;52.324;8.032;2023-09-30T05:08:29;101342.13;;;12.64;100.00
60345;BME280;46188;52.324;8.032;2023-09-30T05:10:56;101346.56;;;12.65;100.00
60345;BME280;46188;52.324;8.032;2023-09-30T05:13:22;101350.94;;;12.64;100.00
60345;BME280;46188;52.324;8.032;2023-09-30T05:15:49;101348.31;;;12.63;100.00
60345;BME280;46188;52.324;8.032;2023-09-30T05:18:14;101351.78;;;12.60;100.00
60345;BME280;46188;52.324;8.032;2023-09-30T05:20:39;101365.03;;;12.62;100.00
60345;BME280;46188;52.324;8.032;2023-09-30T05:23:06;101371.22;;;12.64;100.00
60345;BME280;46188;52.324;8.032;2023-09-30T05:25:32;101370.38;;;12.65;100.00
60345;BME280;46188;52.324;8.032;2023-09-30T05:27:57;101377.41;;;12.63;100.00
60345;BME280;46188;52.324;8.032;2023-09-30T05:30:23;101369.41;;;12.60;100.00
60345;BME280;46188;52.324;8.032;2023-09-30T05:32:48;101374.72;;;12.61;100.00
60345;BME280;46188;52.324;8.032;2023-09-30T05:35:13;101374.78;;;12.66;100.00
60345;BME280;46188;52.324;8.032;2023-09-30T05:37:41;101371.19;;;12.62;100.00
60345;BME280;46188;52.324;8.032;2023-09-30T05:40:07;101377.34;;;12.60;100.00
60345;BME280;46188;52.324;8.032;2023-09-30T05:42:52;101386.06;;;12.55;100.00
60345;BME280;46188;52.324;8.032;2023-09-30T05:45:18;101388.69;;;12.54;100.00
60345;BME280;46188;52.324;8.032;2023-09-30T05:47:43;101386.03;;;12.52;100.00
60345;BME280;46188;52.324;8.032;2023-09-30T05:50:11;101395.72;;;12.52;100.00
60345;BME280;46188;52.324;8.032;2023-09-30T05:52:42;101399.22;;;12.51;100.00
60345;BME280;46188;52.324;8.032;2023-09-30T05:55:08;101399.19;;;12.49;100.00
60345;BME280;46188;52.324;8.032;2023-09-30T05:57:33;101400.00;;;12.45;100.00
60345;BME280;46188;52.324;8.032;2023-09-30T06:00:00;101406.22;;;12.47;100.00
60345;BME280;46188;52.324;8.032;2023-09-30T06:02:26;101397.38;;;12.47;100.00
60345;BME280;46188;52.324;8.032;2023-09-30T06:04:51;101407.06;;;12.45;100.00
60345;BME280;46188;52.324;8.032;2023-09-30T06:07:18;101406.97;;;12.40;100.00
60345;BME280;46188;52.324;8.032;2023-09-30T06:09:45;101403.44;;;12.40;100.00
60345;BME280;46188;52.324;8.032;2023-09-30T06:12:10;101409.63;;;12.40;100.00
60345;BME280;46188;52.324;8.032;2023-09-30T06:14:37;101410.47;;;12.39;100.00
60345;BME280;46188;52.324;8.032;2023-09-30T06:17:02;101417.47;;;12.37;100.00
60345;BME280;46188;52.324;8.032;2023-09-30T06:19:27;101427.16;;;12.35;100.00
60345;BME280;46188;52.324;8.032;2023-09-30T06:21:52;101422.78;;;12.37;100.00
60345;BME280;46188;52.324;8.032;2023-09-30T06:24:18;101423.72;;;12.41;100.00
60345;BME280;46188;52.324;8.032;2023-09-30T06:26:46;101431.63;;;12.39;100.00
60345;BME280;46188;52.324;8.032;2023-09-30T06:29:14;101429.78;;;12.35;100.00
60345;BME280;46188;52.324;8.032;2023-09-30T06:31:39;101425.44;;;12.39;100.00
60345;BME280;46188;52.324;8.032;2023-09-30T06:34:04;101424.59;;;12.41;100.00
60345;BME280;46188;52.324;8.032;2023-09-30T06:36:30;101435.19;;;12.40;100.00
60345;BME280;46188;52.324;8.032;2023-09-30T06:38:55;101421.97;;;12.43;100.00
60345;BME280;46188;52.324;8.032;2023-09-30T06:41:21;101425.56;;;12.45;100.00
60345;BME280;46188;52.324;8.032;2023-09-30T06:43:46;101438.75;;;12.43;100.00
60345;BME280;46188;52.324;8.032;2023-09-30T06:46:12;101434.22;;;12.37;100.00
60345;BME280;46188;52.324;8.032;2023-09-30T06:48:38;101438.78;;;12.45;100.00
60345;BME280;46188;52.324;8.032;2023-09-30T06:51:05;101430.00;;;12.47;100.00
60345;BME280;46188;52.324;8.032;2023-09-30T06:53:31;101444.19;;;12.51;100.00
60345;BME280;46188;52.324;8.032;2023-09-30T06:55:56;101445.81;;;12.44;100.00
60345;BME280;46188;52.324;8.032;2023-09-30T06:58:21;101440.53;;;12.44;100.00
60345;BME280;46188;52.324;8.032;2023-09-30T07:00:48;101442.41;;;12.50;100.00
60345;BME280;46188;52.324;8.032;2023-09-30T07:03:15;101449.50;;;12.52;100.00
60345;BME280;46188;52.324;8.032;2023-09-30T07:05:41;101459.47;;;12.67;100.00
60345;BME280;46188;52.324;8.032;2023-09-30T07:08:06;101456.16;;;12.79;100.00
60345;BME280;46188;52.324;8.032;2023-09-30T07:10:31;101450.00;;;12.80;100.00
60345;BME280;46188;52.324;8.032;2023-09-30T07:12:57;101453.50;;;12.79;100.00
60345;BME280;46188;52.324;8.032;2023-09-30T07:15:22;101461.44;;;12.79;100.00
60345;BME280;46188;52.324;8.032;2023-09-30T07:17:48;101456.16;;;12.78;100.00
60345;BME280;46188;52.324;8.032;2023-09-30T07:20:14;101451.81;;;12.83;100.00
60345;BME280;46188;52.324;8.032;2023-09-30T07:22:40;101461.56;;;12.85;100.00
60345;BME280;46188;52.324;8.032;2023-09-30T07:25:06;101452.78;;;12.88;100.00
60345;BME280;46188;52.324;8.032;2023-09-30T07:27:32;101461.66;;;12.91;100.00
60345;BME280;46188;52.324;8.032;2023-09-30T07:29:57;101464.44;;;13.01;100.00
60345;BME280;46188;52.324;8.032;2023-09-30T07:32:23;101471.78;;;13.16;100.00
60345;BME280;46188;52.324;8.032;2023-09-30T07:34:49;101461.31;;;13.25;100.00
60345;BME280;46188;52.324;8.032;2023-09-30T07:37:15;101465.19;;;13.42;100.00
60345;BME280;46188;52.324;8.032;2023-09-30T07:39:42;101472.41;;;13.54;100.00
60345;BME280;46188;52.324;8.032;2023-09-30T07:42:09;101468.16;;;13.64;100.00
60345;BME280;46188;52.324;8.032;2023-09-30T07:44:34;101470.13;;;13.80;100.00
60345;BME280;46188;52.324;8.032;2023-09-30T07:47:02;101465.88;;;13.93;100.00
60345;BME280;46188;52.324;8.032;2023-09-30T07:49:29;101478.28;;;13.96;100.00
60345;BME280;46188;52.324;8.032;2023-09-30T07:51:54;101479.28;;;14.04;100.00
60345;BME280;46188;52.324;8.032;2023-09-30T07:54:20;101489.06;;;14.10;100.00
60345;BME280;46188;52.324;8.032;2023-09-30T07:56:45;101490.97;;;14.20;100.00
60345;BME280;46188;52.324;8.032;2023-09-30T07:59:10;101488.44;;;14.29;100.00
60345;BME280;46188;52.324;8.032;2023-09-30T08:01:36;101492.13;;;14.44;100.00
60345;BME280;46188;52.324;8.032;2023-09-30T08:04:02;101493.19;;;14.58;100.00
60345;BME280;46188;52.324;8.032;2023-09-30T08:06:27;101500.44;;;14.74;100.00
60345;BME280;46188;52.324;8.032;2023-09-30T08:08:53;101503.31;;;14.98;100.00
60345;BME280;46188;52.324;8.032;2023-09-30T08:11:20;101500.81;;;15.11;100.00
60345;BME280;46188;52.324;8.032;2023-09-30T08:13:46;101510.63;;;15.22;100.00
60345;BME280;46188;52.324;8.032;2023-09-30T08:16:11;101515.19;;;15.38;100.00
60345;BME280;46188;52.324;8.032;2023-09-30T08:18:36;101511.75;;;15.50;100.00
60345;BME280;46188;52.324;8.032;2023-09-30T08:21:02;101507.41;;;15.63;100.00
60345;BME280;46188;52.324;8.032;2023-09-30T08:23:27;101510.13;;;15.72;100.00
60345;BME280;46188;52.324;8.032;2023-09-30T08:25:52;101512.78;;;15.74;100.00
60345;BME280;46188;52.324;8.032;2023-09-30T08:28:19;101512.03;;;15.89;100.00
60345;BME280;46188;52.324;8.032;2023-09-30T08:30:44;101518.28;;;15.97;100.00
60345;BME280;46188;52.324;8.032;2023-09-30T08:33:09;101518.41;;;16.15;100.00
60345;BME280;46188;52.324;8.032;2023-09-30T08:35:38;101519.25;;;16.14;100.00
60345;BME280;46188;52.324;8.032;2023-09-30T08:38:03;101521.06;;;16.21;100.00
60345;BME280;46188;52.324;8.032;2023-09-30T08:40:29;101514.00;;;16.30;100.00
60345;BME280;46188;52.324;8.032;2023-09-30T08:42:54;101530.06;;;16.53;100.00
60345;BME280;46188;52.324;8.032;2023-09-30T08:45:20;101521.16;;;16.43;100.00
60345;BME280;46188;52.324;8.032;2023-09-30T08:47:45;101524.75;;;16.57;100.00
60345;BME280;46188;52.324;8.032;2023-09-30T08:50:16;101525.69;;;16.69;100.00
60345;BME280;46188;52.324;8.032;2023-09-30T08:52:43;101523.09;;;16.90;100.00
60345;BME280;46188;52.324;8.032;2023-09-30T08:55:12;101527.47;;;16.81;100.00
60345;BME280;46188;52.324;8.032;2023-09-30T08:57:40;101528.34;;;16.79;100.00
60345;BME280;46188;52.324;8.032;2023-09-30T09:00:08;101525.69;;;16.84;100.00
60345;BME280;46188;52.324;8.032;2023-09-30T09:02:36;101523.88;;;16.68;100.00
60345;BME280;46188;52.324;8.032;2023-09-30T09:05:02;101530.13;;;16.82;100.00
60345;BME280;46188;52.324;8.032;2023-09-30T09:07:28;101521.25;;;16.77;100.00
60345;BME280;46188;52.324;8.032;2023-09-30T09:10:06;101515.91;;;16.68;100.00
60345;BME280;46188;52.324;8.032;2023-09-30T09:12:34;101513.25;;;16.74;100.00
60345;BME280;46188;52.324;8.032;2023-09-30T09:14:59;101523.03;;;16.79;100.00
60345;BME280;46188;52.324;8.032;2023-09-30T09:17:39;101522.09;;;16.70;100.00
60345;BME280;46188;52.324;8.032;2023-09-30T09:20:06;101522.97;;;16.59;100.00
60345;BME280;46188;52.324;8.032;2023-09-30T09:22:42;101523.88;;;16.57;100.00
60345;BME280;46188;52.324;8.032;2023-09-30T09:25:08;101523.88;;;16.55;100.00
60345;BME280;46188;52.324;8.032;2023-09-30T09:27:34;101526.53;;;16.55;100.00
60345;BME280;46188;52.324;8.032;2023-09-30T09:30:22;101524.72;;;16.51;100.00
60345;BME280;46188;52.324;8.032;2023-09-30T09:33:03;101524.72;;;16.54;100.00
60345;BME280;46188;52.324;8.032;2023-09-30T09:35:34;101527.44;;;16.62;100.00
60345;BME280;46188;52.324;8.032;2023-09-30T09:38:07;101530.13;;;16.67;100.00
60345;BME280;46188;52.324;8.032;2023-09-30T09:40:37;101523.91;;;16.72;100.00
60345;BME280;46188;52.324;8.032;2023-09-30T09:43:06;101514.25;;;17.08;100.00
60345;BME280;46188;52.324;8.032;2023-09-30T09:45:36;101512.44;;;17.52;100.00
60345;BME280;46188;52.324;8.032;2023-09-30T09:48:06;101502.66;;;17.74;100.00
60345;BME280;46188;52.324;8.032;2023-09-30T09:50:32;101509.75;;;17.89;100.00
60345;BME280;46188;52.324;8.032;2023-09-30T09:52:58;101509.72;;;17.83;100.00
60345;BME280;46188;52.324;8.032;2023-09-30T09:55:25;101510.63;;;17.85;100.00
60345;BME280;46188;52.324;8.032;2023-09-30T09:57:52;101507.09;;;17.89;100.00
60345;BME280;46188;52.324;8.032;2023-09-30T10:00:19;101513.25;;;18.06;100.00
60345;BME280;46188;52.324;8.032;2023-09-30T10:02:45;101521.25;;;18.02;100.00
60345;BME280;46188;52.324;8.032;2023-09-30T10:05:12;101519.53;;;17.90;100.00
60345;BME280;46188;52.324;8.032;2023-09-30T10:07:41;101517.72;;;18.00;100.00
60345;BME280;46188;52.324;8.032;2023-09-30T10:10:12;101511.53;;;17.68;100.00
60345;BME280;46188;52.324;8.032;2023-09-30T10:12:39;101514.19;;;17.68;100.00
60345;BME280;46188;52.324;8.032;2023-09-30T10:18:01;101518.66;;;17.71;100.00
60345;BME280;46188;52.324;8.032;2023-09-30T10:20:29;101526.66;;;17.60;100.00
60345;BME280;46188;52.324;8.032;2023-09-30T10:25:42;101527.56;;;17.51;100.00
60345;BME280;46188;52.324;8.032;2023-09-30T10:28:40;101510.66;;;17.65;100.00
60345;BME280;46188;52.324;8.032;2023-09-30T10:31:19;101512.38;;;17.97;100.00
60345;BME280;46188;52.324;8.032;2023-09-30T10:36:30;101507.69;;;18.56;100.00
60345;BME280;46188;52.324;8.032;2023-09-30T10:38:56;101514.72;;;18.74;100.00
60345;BME280;46188;52.324;8.032;2023-09-30T10:46:51;101519.50;;;18.04;100.00
60345;BME280;46188;52.324;8.032;2023-09-30T10:49:36;101531.97;;;17.94;100.00
60345;BME280;46188;52.324;8.032;2023-09-30T10:52:03;101523.06;;;17.78;100.00
60345;BME280;46188;52.324;8.032;2023-09-30T10:54:30;101531.09;;;17.60;100.00
60345;BME280;46188;52.324;8.032;2023-09-30T10:56:57;101538.22;;;17.48;100.00
60345;BME280;46188;52.324;8.032;2023-09-30T10:59:33;101531.13;;;17.32;100.00
60345;BME280;46188;52.324;8.032;2023-09-30T11:02:00;101536.44;;;17.66;100.00
60345;BME280;46188;52.324;8.032;2023-09-30T11:04:25;101532.88;;;17.75;100.00
60345;BME280;46188;52.324;8.032;2023-09-30T11:06:53;101524.88;;;17.67;100.00
60345;BME280;46188;52.324;8.032;2023-09-30T11:09:22;101535.53;;;17.65;100.00
60345;BME280;46188;52.324;8.032;2023-09-30T11:11:50;101532.91;;;17.58;100.00
60345;BME280;46188;52.324;8.032;2023-09-30T11:14:20;101528.44;;;17.55;100.00
60345;BME280;46188;52.324;8.032;2023-09-30T11:16:46;101530.19;;;17.70;100.00
60345;BME280;46188;52.324;8.032;2023-09-30T11:19:12;101538.16;;;17.84;100.00
60345;BME280;46188;52.324;8.032;2023-09-30T11:21:38;101540.81;;;17.84;100.00
60345;BME280;46188;52.324;8.032;2023-09-30T11:24:05;101534.63;;;17.79;100.00
60345;BME280;46188;52.324;8.032;2023-09-30T11:26:32;101539.06;;;17.67;100.00
60345;BME280;46188;52.324;8.032;2023-09-30T11:29:08;101530.22;;;17.50;100.00
60345;BME280;46188;52.324;8.032;2023-09-30T11:31:47;101532.00;;;17.48;100.00
60345;BME280;46188;52.324;8.032;2023-09-30T11:34:13;101523.97;;;17.52;100.00
60345;BME280;46188;52.324;8.032;2023-09-30T11:36:48;101525.78;;;17.55;100.00
60345;BME280;46188;52.324;8.032;2023-09-30T11:39:22;101521.31;;;17.52;100.00
60345;BME280;46188;52.324;8.032;2023-09-30T11:41:48;101521.31;;;17.60;100.00
60345;BME280;46188;52.324;8.032;2023-09-30T11:44:13;101521.28;;;17.79;100.00
60345;BME280;46188;52.324;8.032;2023-09-30T11:46:56;101520.38;;;18.09;100.00
60345;BME280;46188;52.324;8.032;2023-09-30T11:51:59;101520.94;;;18.77;100.00
60345;BME280;46188;52.324;8.032;2023-09-30T11:54:29;101512.06;;;18.72;100.00
60345;BME280;46188;52.324;8.032;2023-09-30T11:56:55;101507.59;;;18.73;100.00
60345;BME280;46188;52.324;8.032;2023-09-30T11:59:21;101504.91;;;18.84;98.13
60345;BME280;46188;52.324;8.032;2023-09-30T12:01:47;101500.34;;;18.95;96.78
60345;BME280;46188;52.324;8.032;2023-09-30T12:04:14;101492.38;;;18.92;96.00
60345;BME280;46188;52.324;8.032;2023-09-30T12:06:40;101485.19;;;19.00;96.11
60345;BME280;46188;52.324;8.032;2023-09-30T12:09:05;101485.94;;;19.17;94.21
60345;BME280;46188;52.324;8.032;2023-09-30T12:11:32;101485.97;;;19.11;94.10
60345;BME280;46188;52.324;8.032;2023-09-30T12:13:57;101477.13;;;19.03;94.13
60345;BME280;46188;52.324;8.032;2023-09-30T12:16:23;101466.50;;;18.97;92.99
60345;BME280;46188;52.324;8.032;2023-09-30T12:18:49;101474.53;;;18.95;91.89
60345;BME280;46188;52.324;8.032;2023-09-30T12:21:14;101473.59;;;19.01;90.67
60345;BME280;46188;52.324;8.032;2023-09-30T12:23:45;101468.09;;;19.20;89.69
60345;BME280;46188;52.324;8.032;2023-09-30T12:26:11;101456.53;;;19.17;89.51
60345;BME280;46188;52.324;8.032;2023-09-30T12:28:37;101464.53;;;19.21;88.75
60345;BME280;46188;52.324;8.032;2023-09-30T12:31:02;101472.34;;;19.41;87.38
60345;BME280;46188;52.324;8.032;2023-09-30T12:33:28;101468.00;;;19.30;87.12
60345;BME280;46188;52.324;8.032;2023-09-30T12:35:55;101471.38;;;19.49;86.26
60345;BME280;46188;52.324;8.032;2023-09-30T12:38:20;101469.59;;;19.50;83.92
60345;BME280;46188;52.324;8.032;2023-09-30T12:40:45;101467.78;;;19.53;83.89
60345;BME280;46188;52.324;8.032;2023-09-30T12:43:11;101466.91;;;19.51;83.19
60345;BME280;46188;52.324;8.032;2023-09-30T12:45:36;101471.47;;;19.42;83.63
60345;BME280;46188;52.324;8.032;2023-09-30T12:48:04;101459.16;;;19.24;83.91
60345;BME280;46188;52.324;8.032;2023-09-30T12:50:29;101470.75;;;19.20;84.30
60345;BME280;46188;52.324;8.032;2023-09-30T12:52:54;101465.41;;;19.20;84.45
60345;BME280;46188;52.324;8.032;2023-09-30T12:55:20;101461.88;;;19.17;84.44